Time;durP1;ratioP1;P1;durP2;ratioP2;P2;SDS_P1;SDS_P2;PMS_P1;PMS_P2;Temp;Humidity;BMP_temperature;BMP_pressure;BME280_temperature;BME280_humidity;BME280_pressure;Samples;Min_cycle;Max_cycle;Signal;HPM_P1;HPM_P2
2022/12/20 00:02:14;;;;;;;7.43;4.25;;;;;;;;;;5143758;27;20077;-58
2022/12/20 00:04:40;;;;;;;9.23;4.20;;;;;;;;;;5142098;27;20086;-58
2022/12/20 00:07:07;;;;;;;5.88;3.50;;;;;;;;;;5144055;27;20054;-58
2022/12/20 00:09:34;;;;;;;10.02;3.95;;;;;;;;;;5122737;27;20057;-58
2022/12/20 00:12:00;;;;;;;5.30;3.70;;;;;;;;;;5144690;27;20078;-58
2022/12/20 00:14:26;;;;;;;8.75;3.95;;;;;;;;;;5140992;27;20050;-57
2022/12/20 00:16:52;;;;;;;5.95;4.13;;;;;;;;;;5144025;27;20852;-58
2022/12/20 00:19:19;;;;;;;5.18;3.95;;;;;;;;;;5143040;27;20051;-58
2022/12/20 00:21:45;;;;;;;6.68;3.95;;;;;;;;;;5144214;27;20054;-58
2022/12/20 00:24:11;;;;;;;7.28;4.00;;;;;;;;;;5138581;27;20043;-58
2022/12/20 00:26:37;;;;;;;11.68;5.43;;;;;;;;;;5142050;27;20039;-58
2022/12/20 00:29:04;;;;;;;6.32;3.20;;;;;;;;;;5141554;27;21293;-58
2022/12/20 00:31:31;;;;;;;5.90;3.78;;;;;;;;;;5142410;27;20050;-58
2022/12/20 00:33:57;;;;;;;6.63;3.83;;;;;;;;;;5143118;27;20035;-57
2022/12/20 00:36:26;;;;;;;7.57;4.50;;;;;;;;;;5139179;27;20043;-57
2022/12/20 00:38:53;;;;;;;6.88;4.00;;;;;;;;;;5140305;27;20093;-58
2022/12/20 00:41:23;;;;;;;8.30;5.45;;;;;;;;;;5142625;27;20495;-58
2022/12/20 00:43:49;;;;;;;5.97;3.90;;;;;;;;;;5144192;27;20547;-57
2022/12/20 00:46:16;;;;;;;8.05;4.35;;;;;;;;;;5139835;27;20556;-58
2022/12/20 00:48:42;;;;;;;8.35;4.50;;;;;;;;;;5142654;27;20091;-58
2022/12/20 00:51:10;;;;;;;8.05;3.30;;;;;;;;;;5141504;27;20148;-58
2022/12/20 00:53:36;;;;;;;8.38;4.78;;;;;;;;;;5140624;27;20038;-58
2022/12/20 00:56:03;;;;;;;7.82;4.20;;;;;;;;;;5143468;27;20064;-58
2022/12/20 00:58:29;;;;;;;8.82;3.47;;;;;;;;;;5146223;27;20038;-58
2022/12/20 01:00:55;;;;;;;11.50;4.57;;;;;;;;;;5147419;27;20039;-58
2022/12/20 01:03:21;;;;;;;9.10;3.33;;;;;;;;;;5146685;27;20065;-58
2022/12/20 01:05:52;;;;;;;7.70;3.75;;;;;;;;;;5144320;27;20136;-57
2022/12/20 01:08:18;;;;;;;8.50;3.83;;;;;;;;;;5143459;27;20045;-58
2022/12/20 01:10:44;;;;;;;7.45;4.57;;;;;;;;;;5145779;27;20105;-58
2022/12/20 01:13:10;;;;;;;6.45;3.33;;;;;;;;;;5146201;27;20032;-58
2022/12/20 01:15:37;;;;;;;6.35;3.20;;;;;;;;;;5142943;27;20509;-58
2022/12/20 01:18:03;;;;;;;5.30;2.90;;;;;;;;;;5143452;27;20046;-58
2022/12/20 01:20:29;;;;;;;6.45;3.45;;;;;;;;;;5137814;27;20038;-57
2022/12/20 01:22:55;;;;;;;7.55;3.38;;;;;;;;;;5140846;27;20067;-59
2022/12/20 01:25:21;;;;;;;5.80;3.50;;;;;;;;;;5143485;27;20711;-58
2022/12/20 01:27:48;;;;;;;7.05;3.28;;;;;;;;;;5141754;27;20074;-58
2022/12/20 01:30:14;;;;;;;8.13;3.60;;;;;;;;;;5143626;27;20075;-57
2022/12/20 01:32:40;;;;;;;5.95;3.60;;;;;;;;;;5145099;27;20065;-59
2022/12/20 01:35:06;;;;;;;8.50;4.47;;;;;;;;;;5143916;27;20039;-58
2022/12/20 01:37:32;;;;;;;6.75;3.50;;;;;;;;;;5143463;27;20612;-57
2022/12/20 01:39:59;;;;;;;10.80;3.33;;;;;;;;;;5143718;27;20059;-58
2022/12/20 01:42:25;;;;;;;7.63;3.45;;;;;;;;;;5144674;27;20095;-58
2022/12/20 01:44:52;;;;;;;5.60;2.33;;;;;;;;;;5138247;27;20543;-58
2022/12/20 01:47:18;;;;;;;6.95;3.58;;;;;;;;;;5141512;27;20159;-58
2022/12/20 01:49:47;;;;;;;7.75;4.07;;;;;;;;;;5143477;27;20047;-58
2022/12/20 01:52:33;;;;;;;8.20;3.55;;;;;;;;;;5159288;27;20043;-58
2022/12/20 01:55:04;;;;;;;8.88;3.95;;;;;;;;;;5145526;27;20185;-58
2022/12/20 01:57:40;;;;;;;4.78;2.78;;;;;;;;;;5144918;27;21379;-58
2022/12/20 02:00:08;;;;;;;5.07;3.40;;;;;;;;;;5144853;27;20442;-57
2022/12/20 02:02:34;;;;;;;7.55;2.95;;;;;;;;;;5144874;27;20058;-57
2022/12/20 02:05:00;;;;;;;6.90;3.10;;;;;;;;;;5142938;27;20196;-58
2022/12/20 02:07:28;;;;;;;5.40;3.38;;;;;;;;;;5141729;27;20080;-58
2022/12/20 02:09:56;;;;;;;7.50;2.90;;;;;;;;;;5145217;27;20042;-57
2022/12/20 02:12:23;;;;;;;7.82;2.78;;;;;;;;;;5143625;27;20508;-58
2022/12/20 02:15:12;;;;;;;5.93;3.13;;;;;;;;;;5144506;27;20091;-58
2022/12/20 02:17:52;;;;;;;6.20;3.00;;;;;;;;;;5138285;27;20039;-58
2022/12/20 02:20:30;;;;;;;5.43;3.08;;;;;;;;;;5142998;27;20043;-58
2022/12/20 02:23:05;;;;;;;8.80;3.25;;;;;;;;;;5140844;27;20118;-58
2022/12/20 02:25:43;;;;;;;7.00;4.03;;;;;;;;;;5141191;27;20175;-58
2022/12/20 02:28:28;;;;;;;5.68;2.88;;;;;;;;;;5142307;27;20035;-58
2022/12/20 02:30:55;;;;;;;6.20;3.10;;;;;;;;;;5144549;27;20046;-57
2022/12/20 02:33:22;;;;;;;6.88;2.60;;;;;;;;;;5143208;27;20036;-58
2022/12/20 02:35:48;;;;;;;6.88;2.83;;;;;;;;;;5140602;27;20624;-57
2022/12/20 02:38:29;;;;;;;6.72;3.47;;;;;;;;;;5142305;27;20463;-58
2022/12/20 02:41:00;;;;;;;7.63;2.63;;;;;;;;;;5144448;27;20051;-58
2022/12/20 02:46:13;;;;;;;5.88;3.05;;;;;;;;;;5142745;27;20035;-58
2022/12/20 02:48:40;;;;;;;10.02;3.72;;;;;;;;;;5142648;27;20096;-57
2022/12/20 02:51:08;;;;;;;4.95;2.53;;;;;;;;;;5140891;27;20792;-58
2022/12/20 02:53:35;;;;;;;8.55;2.70;;;;;;;;;;5141761;27;20439;-58
2022/12/20 02:56:05;;;;;;;10.80;4.45;;;;;;;;;;5144917;27;20042;-58
2022/12/20 02:58:35;;;;;;;7.55;2.53;;;;;;;;;;5144993;27;20122;-58
2022/12/20 03:01:05;;;;;;;6.93;3.17;;;;;;;;;;5142250;27;20040;-57
2022/12/20 03:03:33;;;;;;;3.95;2.55;;;;;;;;;;5143384;27;20043;-58
2022/12/20 03:05:59;;;;;;;5.00;2.67;;;;;;;;;;5140073;27;20077;-58
2022/12/20 03:08:25;;;;;;;7.97;3.45;;;;;;;;;;5142442;27;20041;-58
2022/12/20 03:10:52;;;;;;;5.32;2.65;;;;;;;;;;5142323;27;20579;-57
2022/12/20 03:13:18;;;;;;;8.20;2.33;;;;;;;;;;5143592;27;20067;-58
2022/12/20 03:15:45;;;;;;;5.38;2.90;;;;;;;;;;5141421;27;20042;-58
2022/12/20 03:18:11;;;;;;;5.18;2.83;;;;;;;;;;5142325;27;20590;-57
2022/12/20 03:20:38;;;;;;;5.70;3.28;;;;;;;;;;5141846;27;20048;-58
2022/12/20 03:23:04;;;;;;;3.92;2.63;;;;;;;;;;5139393;27;20183;-57
2022/12/20 03:25:30;;;;;;;4.65;2.50;;;;;;;;;;5142692;27;20585;-57
2022/12/20 03:27:56;;;;;;;4.82;2.47;;;;;;;;;;5141878;27;21336;-57
2022/12/20 03:30:22;;;;;;;6.07;2.17;;;;;;;;;;5143620;27;20158;-59
2022/12/20 03:32:48;;;;;;;4.45;2.25;;;;;;;;;;5138450;27;20063;-58
2022/12/20 03:35:14;;;;;;;6.03;2.42;;;;;;;;;;5143862;27;20042;-58
2022/12/20 03:37:40;;;;;;;4.43;2.10;;;;;;;;;;5142104;27;20448;-58
2022/12/20 03:40:07;;;;;;;3.28;2.40;;;;;;;;;;5142941;27;20039;-58
2022/12/20 03:42:33;;;;;;;5.25;2.30;;;;;;;;;;5141187;27;20179;-58
2022/12/20 03:44:59;;;;;;;6.15;2.58;;;;;;;;;;5139634;27;20035;-58
2022/12/20 03:47:25;;;;;;;8.68;2.65;;;;;;;;;;5138963;27;20462;-58
2022/12/20 03:49:51;;;;;;;6.32;2.13;;;;;;;;;;5140276;27;20043;-58
2022/12/20 03:52:18;;;;;;;4.03;2.20;;;;;;;;;;5137481;27;20042;-58
2022/12/20 03:54:44;;;;;;;5.88;2.30;;;;;;;;;;5141038;27;20109;-58
2022/12/20 03:57:10;;;;;;;3.67;2.30;;;;;;;;;;5157307;27;20834;-57
2022/12/20 03:59:36;;;;;;;8.93;2.83;;;;;;;;;;5140188;27;20073;-58
2022/12/20 04:02:03;;;;;;;5.93;4.18;;;;;;;;;;5135570;27;20046;-58
2022/12/20 04:04:29;;;;;;;5.15;2.45;;;;;;;;;;5141534;27;20051;-58
2022/12/20 04:06:55;;;;;;;5.68;3.55;;;;;;;;;;5139993;27;20046;-58
2022/12/20 04:09:21;;;;;;;4.35;2.03;;;;;;;;;;5142348;27;20108;-58
2022/12/20 04:11:47;;;;;;;8.30;2.85;;;;;;;;;;5141671;27;20045;-57
2022/12/20 04:14:13;;;;;;;5.88;2.50;;;;;;;;;;5143077;27;20039;-58
2022/12/20 04:16:39;;;;;;;7.82;2.70;;;;;;;;;;5140209;27;20043;-57
2022/12/20 04:19:05;;;;;;;6.63;2.35;;;;;;;;;;5140070;27;20113;-58
2022/12/20 04:21:32;;;;;;;4.78;2.00;;;;;;;;;;5143619;27;20054;-58
2022/12/20 04:23:59;;;;;;;4.63;2.30;;;;;;;;;;5137438;27;20593;-58
2022/12/20 04:26:26;;;;;;;5.03;2.55;;;;;;;;;;5140530;27;20042;-57
2022/12/20 04:28:52;;;;;;;7.25;2.38;;;;;;;;;;5140012;27;20035;-58
2022/12/20 04:31:18;;;;;;;3.42;2.15;;;;;;;;;;5141905;27;20050;-58
2022/12/20 04:33:44;;;;;;;7.97;2.20;;;;;;;;;;5139111;27;20062;-58
2022/12/20 04:36:10;;;;;;;5.53;1.90;;;;;;;;;;5137329;27;20069;-58
2022/12/20 04:38:36;;;;;;;4.85;1.88;;;;;;;;;;5141849;27;20416;-58
2022/12/20 04:41:03;;;;;;;7.07;2.08;;;;;;;;;;5140457;27;20123;-58
2022/12/20 04:43:29;;;;;;;6.22;2.33;;;;;;;;;;5141723;27;20039;-58
2022/12/20 04:45:55;;;;;;;4.82;3.05;;;;;;;;;;5141659;27;20062;-58
2022/12/20 04:48:24;;;;;;;7.32;2.20;;;;;;;;;;5140657;27;20073;-58
2022/12/20 04:50:50;;;;;;;8.52;2.35;;;;;;;;;;5139995;27;20550;-58
2022/12/20 04:56:02;;;;;;;5.10;2.63;;;;;;;;;;5143712;27;20046;-58
2022/12/20 04:58:28;;;;;;;5.88;2.58;;;;;;;;;;5143813;27;20508;-58
2022/12/20 05:00:54;;;;;;;3.20;2.00;;;;;;;;;;5143542;27;20047;-58
2022/12/20 05:03:21;;;;;;;5.57;2.20;;;;;;;;;;5141798;27;20079;-58
2022/12/20 05:05:47;;;;;;;4.80;2.60;;;;;;;;;;5135136;27;20055;-58
2022/12/20 05:08:13;;;;;;;4.18;2.28;;;;;;;;;;5142372;27;20101;-58
2022/12/20 05:10:39;;;;;;;8.75;2.42;;;;;;;;;;5139962;27;20970;-58
2022/12/20 05:13:05;;;;;;;6.70;1.90;;;;;;;;;;5125596;27;20050;-58
2022/12/20 05:15:31;;;;;;;3.53;1.67;;;;;;;;;;5140526;27;20761;-58
2022/12/20 05:17:58;;;;;;;6.90;2.38;;;;;;;;;;5141593;27;20123;-58
2022/12/20 05:20:28;;;;;;;4.68;2.38;;;;;;;;;;5137696;27;20039;-58
2022/12/20 05:26:16;;;;;;;2.63;1.80;;;;;;;;;;5138696;27;20451;-58
2022/12/20 05:28:34;;;;;;;4.95;2.03;;;;;;;;;;5140947;27;20043;-57
2022/12/20 05:31:00;;;;;;;2.83;1.98;;;;;;;;;;5138113;27;20035;-57
2022/12/20 05:33:26;;;;;;;4.50;2.22;;;;;;;;;;5134800;27;20085;-58
2022/12/20 05:35:52;;;;;;;4.22;2.00;;;;;;;;;;5135353;27;20034;-58
2022/12/20 05:38:19;;;;;;;6.40;2.17;;;;;;;;;;5128467;27;20049;-58
2022/12/20 05:40:47;;;;;;;4.72;2.13;;;;;;;;;;5126181;27;20048;-58
2022/12/20 05:43:14;;;;;;;3.58;2.15;;;;;;;;;;5132830;27;20038;-58
2022/12/20 05:45:40;;;;;;;5.10;2.20;;;;;;;;;;5124390;27;20041;-58
2022/12/20 05:48:06;;;;;;;6.45;1.95;;;;;;;;;;5122103;27;20566;-58
2022/12/20 05:50:32;;;;;;;3.60;2.30;;;;;;;;;;5118875;27;20077;-57
2022/12/20 05:52:58;;;;;;;5.80;1.90;;;;;;;;;;5117373;27;20035;-57
2022/12/20 05:55:24;;;;;;;7.00;2.10;;;;;;;;;;5123186;27;20039;-58
2022/12/20 05:57:50;;;;;;;3.28;1.75;;;;;;;;;;5119503;27;20118;-57
2022/12/20 06:00:16;;;;;;;5.60;2.33;;;;;;;;;;5132461;27;20641;-58
2022/12/20 06:02:43;;;;;;;4.93;1.95;;;;;;;;;;5114012;27;20415;-59
2022/12/20 06:05:09;;;;;;;2.75;1.88;;;;;;;;;;5120024;27;20039;-58
2022/12/20 06:07:35;;;;;;;6.55;2.53;;;;;;;;;;5141878;27;20130;-58
2022/12/20 06:10:01;;;;;;;3.53;1.77;;;;;;;;;;5132467;27;20035;-58
2022/12/20 06:12:27;;;;;;;4.35;1.98;;;;;;;;;;5141573;27;20058;-58
2022/12/20 06:14:53;;;;;;;10.85;2.33;;;;;;;;;;5140731;27;20041;-58
2022/12/20 06:17:20;;;;;;;3.30;1.70;;;;;;;;;;5142824;27;20069;-58
2022/12/20 06:19:47;;;;;;;3.83;1.50;;;;;;;;;;5141381;27;20679;-58
2022/12/20 06:22:13;;;;;;;4.05;2.10;;;;;;;;;;5143999;27;20493;-59
2022/12/20 06:24:39;;;;;;;3.95;1.55;;;;;;;;;;5143537;27;20049;-58
2022/12/20 06:27:08;;;;;;;5.82;1.90;;;;;;;;;;5142653;27;20124;-58
2022/12/20 06:29:36;;;;;;;4.43;1.75;;;;;;;;;;5141427;27;20055;-57
2022/12/20 06:32:04;;;;;;;8.32;2.28;;;;;;;;;;5143098;27;20046;-58
2022/12/20 06:34:30;;;;;;;5.80;1.70;;;;;;;;;;5143822;27;20050;-58
2022/12/20 06:36:56;;;;;;;5.82;1.80;;;;;;;;;;5143231;27;20047;-58
2022/12/20 06:39:22;;;;;;;4.90;2.10;;;;;;;;;;5144795;27;20039;-58
2022/12/20 06:41:48;;;;;;;4.55;2.22;;;;;;;;;;5144640;27;20690;-58
2022/12/20 06:44:14;;;;;;;4.18;1.95;;;;;;;;;;5144651;27;20069;-59
2022/12/20 06:46:40;;;;;;;5.88;2.42;;;;;;;;;;5144002;27;20077;-58
2022/12/20 06:49:06;;;;;;;4.82;1.95;;;;;;;;;;5144916;27;20114;-58
2022/12/20 06:51:33;;;;;;;5.15;1.88;;;;;;;;;;5142375;27;21139;-58
2022/12/20 06:53:59;;;;;;;6.95;2.30;;;;;;;;;;5141363;27;20162;-58
2022/12/20 06:56:25;;;;;;;4.35;2.15;;;;;;;;;;5141490;27;20479;-58
2022/12/20 06:58:51;;;;;;;3.55;2.28;;;;;;;;;;5140789;27;20043;-59
2022/12/20 07:01:17;;;;;;;7.53;2.17;;;;;;;;;;5140748;27;20043;-60
2022/12/20 07:03:43;;;;;;;6.90;1.98;;;;;;;;;;5142331;27;20492;-58
2022/12/20 07:06:09;;;;;;;3.17;1.80;;;;;;;;;;5134945;27;20067;-58
2022/12/20 07:08:35;;;;;;;8.25;2.70;;;;;;;;;;5133544;27;20121;-59
2022/12/20 07:11:06;;;;;;;5.55;1.90;;;;;;;;;;5137446;27;20073;-58
2022/12/20 07:13:32;;;;;;;9.63;2.28;;;;;;;;;;5142755;27;20043;-58
2022/12/20 07:15:58;;;;;;;4.95;1.77;;;;;;;;;;5140812;27;20078;-59
2022/12/20 07:18:25;;;;;;;5.95;2.90;;;;;;;;;;5139258;27;20158;-58
2022/12/20 07:20:51;;;;;;;4.47;2.15;;;;;;;;;;5134886;27;20070;-58
2022/12/20 07:23:17;;;;;;;6.30;1.80;;;;;;;;;;5139566;27;20092;-57
2022/12/20 07:25:43;;;;;;;5.05;1.83;;;;;;;;;;5137011;27;20138;-58
2022/12/20 07:28:10;;;;;;;5.50;1.95;;;;;;;;;;5138613;27;20163;-58
2022/12/20 07:30:36;;;;;;;5.82;2.88;;;;;;;;;;5134807;27;20693;-58
2022/12/20 07:33:02;;;;;;;8.48;2.03;;;;;;;;;;5138615;27;20086;-58
2022/12/20 07:35:29;;;;;;;4.35;2.55;;;;;;;;;;5137926;27;20044;-58
2022/12/20 07:37:55;;;;;;;5.03;2.30;;;;;;;;;;5137211;27;20039;-58
2022/12/20 07:40:21;;;;;;;6.07;2.03;;;;;;;;;;5139708;27;20039;-58
2022/12/20 07:42:47;;;;;;;6.15;2.22;;;;;;;;;;5138860;27;20054;-58
2022/12/20 07:45:14;;;;;;;4.95;1.98;;;;;;;;;;5137791;27;20503;-58
2022/12/20 07:47:40;;;;;;;4.00;2.22;;;;;;;;;;5136600;27;20523;-58
2022/12/20 07:50:06;;;;;;;5.40;2.83;;;;;;;;;;5137999;27;20505;-58
2022/12/20 07:52:34;;;;;;;4.40;2.58;;;;;;;;;;5138612;27;20641;-58
2022/12/20 07:55:02;;;;;;;3.88;2.10;;;;;;;;;;5130659;27;20508;-58
2022/12/20 07:57:31;;;;;;;4.68;2.40;;;;;;;;;;5139829;27;20043;-59
2022/12/20 07:59:59;;;;;;;9.65;2.85;;;;;;;;;;5140704;27;20031;-58
2022/12/20 08:02:28;;;;;;;8.27;3.40;;;;;;;;;;5135793;27;20070;-58
2022/12/20 08:04:55;;;;;;;4.50;1.98;;;;;;;;;;5141630;27;20529;-58
2022/12/20 08:07:21;;;;;;;4.78;2.50;;;;;;;;;;5142195;27;20077;-58
2022/12/20 08:09:47;;;;;;;4.65;2.15;;;;;;;;;;5141516;27;20046;-58
2022/12/20 08:12:15;;;;;;;3.70;1.98;;;;;;;;;;5139865;27;20038;-58
2022/12/20 08:14:42;;;;;;;6.55;2.42;;;;;;;;;;5142724;27;20047;-58
2022/12/20 08:17:08;;;;;;;6.15;2.58;;;;;;;;;;5140831;27;20039;-58
2022/12/20 08:19:34;;;;;;;5.25;2.20;;;;;;;;;;5144692;27;20505;-58
2022/12/20 08:22:00;;;;;;;5.53;1.98;;;;;;;;;;5143300;27;20039;-58
2022/12/20 08:24:26;;;;;;;7.68;2.67;;;;;;;;;;5145731;27;20344;-58
2022/12/20 08:26:52;;;;;;;6.45;2.33;;;;;;;;;;5144523;27;20123;-58
2022/12/20 08:29:18;;;;;;;4.15;2.45;;;;;;;;;;5145207;27;20042;-58
2022/12/20 08:31:44;;;;;;;8.25;2.05;;;;;;;;;;5144315;27;20047;-57
2022/12/20 08:34:10;;;;;;;3.13;2.10;;;;;;;;;;5141266;27;20091;-58
2022/12/20 08:36:36;;;;;;;6.80;2.90;;;;;;;;;;5142857;27;20040;-58
2022/12/20 08:39:06;;;;;;;3.85;2.28;;;;;;;;;;5145145;27;20039;-58
2022/12/20 08:41:35;;;;;;;4.45;2.45;;;;;;;;;;5145461;27;20578;-58
2022/12/20 08:44:01;;;;;;;5.60;2.30;;;;;;;;;;5143891;27;20054;-58
2022/12/20 08:46:28;;;;;;;4.38;2.65;;;;;;;;;;5142804;27;20384;-58
2022/12/20 08:48:54;;;;;;;3.83;2.33;;;;;;;;;;5145349;27;20042;-58
2022/12/20 08:51:20;;;;;;;5.50;2.33;;;;;;;;;;5141310;27;20528;-58
2022/12/20 08:53:46;;;;;;;5.47;2.20;;;;;;;;;;5144554;27;20047;-58
2022/12/20 08:56:15;;;;;;;6.18;2.45;;;;;;;;;;5144460;27;20043;-58
2022/12/20 08:58:41;;;;;;;7.20;2.17;;;;;;;;;;5142198;27;20047;-58
2022/12/20 09:01:09;;;;;;;7.93;3.80;;;;;;;;;;5144262;27;20042;-58
2022/12/20 09:03:35;;;;;;;4.32;2.60;;;;;;;;;;5142515;27;20043;-58
2022/12/20 09:06:05;;;;;;;5.05;2.45;;;;;;;;;;5140820;27;20466;-58
2022/12/20 09:08:31;;;;;;;6.70;2.40;;;;;;;;;;5145035;27;20136;-58
2022/12/20 09:11:04;;;;;;;6.25;2.67;;;;;;;;;;5142483;27;20447;-58
2022/12/20 09:13:30;;;;;;;7.15;2.08;;;;;;;;;;5144442;27;20431;-58
2022/12/20 09:15:56;;;;;;;5.30;2.83;;;;;;;;;;5148294;27;20050;-58
2022/12/20 09:18:22;;;;;;;5.28;2.30;;;;;;;;;;5148935;27;20039;-58
2022/12/20 09:20:48;;;;;;;6.07;3.35;;;;;;;;;;5147485;27;20034;-58
2022/12/20 09:23:14;;;;;;;4.32;2.35;;;;;;;;;;5147119;27;20047;-58
2022/12/20 09:25:40;;;;;;;4.55;2.10;;;;;;;;;;5148867;27;20035;-58
2022/12/20 09:28:06;;;;;;;4.72;2.17;;;;;;;;;;5146265;27;20623;-58
2022/12/20 09:30:32;;;;;;;4.25;2.85;;;;;;;;;;5147915;27;20046;-58
2022/12/20 09:32:58;;;;;;;3.22;2.03;;;;;;;;;;5147824;27;20043;-58
2022/12/20 09:35:25;;;;;;;3.33;1.95;;;;;;;;;;5147070;27;20104;-59
2022/12/20 09:37:51;;;;;;;5.80;2.47;;;;;;;;;;5143914;27;20043;-58
2022/12/20 09:40:21;;;;;;;4.05;2.35;;;;;;;;;;5144358;27;20045;-58
2022/12/20 09:42:49;;;;;;;4.35;2.20;;;;;;;;;;5140619;27;20110;-58
2022/12/20 09:45:21;;;;;;;3.55;2.05;;;;;;;;;;5127897;27;20039;-58
2022/12/20 09:47:47;;;;;;;4.20;2.10;;;;;;;;;;5147545;27;20042;-58
2022/12/20 09:50:17;;;;;;;5.30;2.50;;;;;;;;;;5143471;27;20531;-60
2022/12/20 09:52:50;;;;;;;5.40;2.88;;;;;;;;;;5141659;27;20039;-58
2022/12/20 09:55:29;;;;;;;3.10;1.88;;;;;;;;;;5147400;27;20068;-58
2022/12/20 09:58:06;;;;;;;6.30;2.45;;;;;;;;;;5147178;27;20393;-58
2022/12/20 10:00:50;;;;;;;5.10;2.17;;;;;;;;;;5147096;27;20042;-58
2022/12/20 10:03:31;;;;;;;5.22;1.92;;;;;;;;;;5145720;27;20471;-58
2022/12/20 10:06:05;;;;;;;4.88;2.08;;;;;;;;;;5144550;27;20058;-59
2022/12/20 10:08:50;;;;;;;5.00;2.35;;;;;;;;;;5148508;27;20548;-58
2022/12/20 10:11:19;;;;;;;7.40;2.05;;;;;;;;;;5143936;27;20091;-58
2022/12/20 10:13:55;;;;;;;4.35;2.28;;;;;;;;;;5144974;27;20039;-58
2022/12/20 10:16:21;;;;;;;3.08;1.75;;;;;;;;;;5145688;27;20066;-58
2022/12/20 10:19:19;;;;;;;5.47;1.70;;;;;;;;;;5146612;27;20118;-58
2022/12/20 10:22:04;;;;;;;3.92;2.28;;;;;;;;;;5132828;27;20055;-58
2022/12/20 10:24:31;;;;;;;2.72;2.00;;;;;;;;;;5144404;27;20039;-58
2022/12/20 10:27:02;;;;;;;5.45;2.75;;;;;;;;;;5146495;27;20067;-59
2022/12/20 10:29:28;;;;;;;5.28;2.55;;;;;;;;;;5146172;27;20515;-58
2022/12/20 10:31:58;;;;;;;7.13;2.30;;;;;;;;;;5144894;27;20476;-58
2022/12/20 10:34:24;;;;;;;5.45;1.95;;;;;;;;;;5144097;27;20131;-59
2022/12/20 10:37:10;;;;;;;4.35;2.22;;;;;;;;;;5143207;27;20761;-58
2022/12/20 10:40:02;;;;;;;6.60;2.20;;;;;;;;;;5145691;27;20171;-58
2022/12/20 10:42:31;;;;;;;7.93;1.85;;;;;;;;;;5141439;27;20047;-58
2022/12/20 10:44:57;;;;;;;6.25;2.10;;;;;;;;;;5145308;27;20080;-58
2022/12/20 10:47:37;;;;;;;5.80;1.98;;;;;;;;;;5144876;27;20548;-58
2022/12/20 10:50:13;;;;;;;8.02;2.35;;;;;;;;;;5144281;27;20039;-58
2022/12/20 10:52:39;;;;;;;3.78;2.22;;;;;;;;;;5144917;27;20042;-59
2022/12/20 10:55:25;;;;;;;5.70;2.20;;;;;;;;;;5146027;27;20419;-58
2022/12/20 10:57:51;;;;;;;5.60;2.47;;;;;;;;;;5146023;27;20106;-58
2022/12/20 11:00:28;;;;;;;12.18;4.03;;;;;;;;;;5146087;27;20043;-58
2022/12/20 11:03:14;;;;;;;4.53;2.10;;;;;;;;;;5145511;27;20098;-58
2022/12/20 11:05:41;;;;;;;5.05;2.50;;;;;;;;;;5144231;27;20531;-58
2022/12/20 11:08:26;;;;;;;4.07;2.22;;;;;;;;;;5145017;27;20096;-58
2022/12/20 11:11:18;;;;;;;4.60;2.53;;;;;;;;;;5145250;27;20039;-58
2022/12/20 11:13:45;;;;;;;3.58;2.17;;;;;;;;;;5142444;27;20035;-58
2022/12/20 11:16:29;;;;;;;6.53;2.30;;;;;;;;;;5144458;27;20256;-58
2022/12/20 11:19:00;;;;;;;6.40;2.28;;;;;;;;;;5141953;27;20039;-59
2022/12/20 11:21:29;;;;;;;5.03;2.67;;;;;;;;;;5142866;27;20807;-58
2022/12/20 11:24:01;;;;;;;8.82;3.05;;;;;;;;;;5146243;27;20047;-59
2022/12/20 11:26:35;;;;;;;9.18;4.43;;;;;;;;;;5138640;27;20035;-58
2022/12/20 11:29:14;;;;;;;4.28;2.03;;;;;;;;;;5142840;27;20039;-58
2022/12/20 11:32:09;;;;;;;8.77;2.88;;;;;;;;;;5145549;27;20230;-58
2022/12/20 11:34:53;;;;;;;4.88;2.92;;;;;;;;;;5121737;27;20585;-58
2022/12/20 11:37:24;;;;;;;7.40;2.25;;;;;;;;;;5144376;27;20530;-59
2022/12/20 11:40:05;;;;;;;11.32;2.83;;;;;;;;;;5145519;27;20124;-59
2022/12/20 11:42:42;;;;;;;7.77;2.43;;;;;;;;;;5145223;27;20315;-58
2022/12/20 11:45:18;;;;;;;5.80;2.58;;;;;;;;;;5140851;27;20543;-58
2022/12/20 11:47:44;;;;;;;9.13;3.60;;;;;;;;;;5141057;27;20126;-60
2022/12/20 11:50:26;;;;;;;6.82;2.67;;;;;;;;;;5144093;27;20080;-59
2022/12/20 11:52:56;;;;;;;3.53;2.23;;;;;;;;;;5143055;27;20027;-58
2022/12/20 11:55:26;;;;;;;6.63;3.00;;;;;;;;;;5145982;27;20045;-58
2022/12/20 11:58:01;;;;;;;7.97;2.83;;;;;;;;;;5143596;27;20120;-58
2022/12/20 12:00:27;;;;;;;10.60;2.80;;;;;;;;;;5143380;27;20043;-58
2022/12/20 12:03:04;;;;;;;4.90;3.13;;;;;;;;;;5143665;27;20035;-58
2022/12/20 12:05:42;;;;;;;7.63;3.10;;;;;;;;;;5141820;27;20995;-59
2022/12/20 12:08:12;;;;;;;7.72;2.97;;;;;;;;;;5145135;27;20051;-59
2022/12/20 12:10:41;;;;;;;9.20;4.00;;;;;;;;;;5144677;27;20043;-60
2022/12/20 12:13:09;;;;;;;5.13;3.03;;;;;;;;;;5144337;27;20044;-58
2022/12/20 12:15:40;;;;;;;5.88;2.80;;;;;;;;;;5145236;27;20046;-58
2022/12/20 12:18:17;;;;;;;6.60;2.67;;;;;;;;;;5143819;27;20043;-58
2022/12/20 12:20:57;;;;;;;6.18;3.25;;;;;;;;;;5125306;27;20103;-58
2022/12/20 12:23:30;;;;;;;11.60;3.28;;;;;;;;;;5145095;27;20049;-58
2022/12/20 12:25:58;;;;;;;3.28;2.40;;;;;;;;;;5144281;27;20042;-59
2022/12/20 12:28:25;;;;;;;5.00;2.75;;;;;;;;;;5142943;27;20161;-58
2022/12/20 12:30:57;;;;;;;8.55;2.72;;;;;;;;;;5145760;27;20043;-58
2022/12/20 12:33:23;;;;;;;;;;;;;;;;;;5141474;27;20036;-58
2022/12/20 12:35:55;;;;;;;9.02;2.78;;;;;;;;;;5143796;27;20414;-58
2022/12/20 12:38:21;;;;;;;;;;;;;;;;;;5142634;27;20883;-58
2022/12/20 12:41:11;;;;;;;5.20;2.38;;;;;;;;;;5140525;27;20494;-58
2022/12/20 12:43:40;;;;;;;4.55;2.58;;;;;;;;;;5145387;27;20448;-58
2022/12/20 12:46:11;;;;;;;4.07;2.47;;;;;;;;;;5144025;27;20418;-58
2022/12/20 12:48:40;;;;;;;9.20;3.60;;;;;;;;;;5142042;27;20539;-58
2022/12/20 12:51:06;;;;;;;6.43;3.03;;;;;;;;;;5147641;27;21898;-58
2022/12/20 12:53:37;;;;;;;6.20;2.50;;;;;;;;;;5148848;27;20047;-59
2022/12/20 12:56:30;;;;;;;5.80;2.55;;;;;;;;;;5147261;27;20039;-58
2022/12/20 12:59:05;;;;;;;4.70;2.20;;;;;;;;;;5147202;27;20058;-58
2022/12/20 13:01:48;;;;;;;14.48;3.13;;;;;;;;;;5147850;27;20159;-59
2022/12/20 13:04:20;;;;;;;7.35;4.47;;;;;;;;;;5146581;27;20039;-58
2022/12/20 13:06:46;;;;;;;5.97;2.67;;;;;;;;;;5147430;27;20055;-58
2022/12/20 13:09:21;;;;;;;6.70;3.47;;;;;;;;;;5147061;27;20050;-58
2022/12/20 13:11:48;;;;;;;9.45;3.70;;;;;;;;;;5145875;27;20047;-59
2022/12/20 13:14:20;;;;;;;4.20;2.33;;;;;;;;;;5148114;27;20686;-59
2022/12/20 13:16:47;;;;;;;3.72;2.30;;;;;;;;;;5146057;27;20158;-58
2022/12/20 13:19:17;;;;;;;7.70;3.20;;;;;;;;;;5145183;27;20047;-58
2022/12/20 13:21:45;;;;;;;3.92;3.15;;;;;;;;;;5146067;27;20042;-58
2022/12/20 13:24:30;;;;;;;4.03;2.40;;;;;;;;;;5146023;27;20059;-58
2022/12/20 13:26:56;;;;;;;5.25;2.65;;;;;;;;;;5147611;27;20035;-58
2022/12/20 13:29:24;;;;;;;8.98;3.30;;;;;;;;;;5144461;27;20536;-58
2022/12/20 13:31:50;;;;;;;5.30;2.97;;;;;;;;;;5142435;27;20096;-59
2022/12/20 13:34:36;;;;;;;4.68;2.30;;;;;;;;;;5144628;27;20032;-59
2022/12/20 13:37:02;;;;;;;7.05;3.72;;;;;;;;;;5139048;27;20487;-58
2022/12/20 13:39:32;;;;;;;5.05;2.45;;;;;;;;;;5148530;27;20125;-58
2022/12/20 13:42:15;;;;;;;7.65;3.15;;;;;;;;;;5146714;27;20092;-58
2022/12/20 13:44:45;;;;;;;5.53;3.10;;;;;;;;;;5148129;27;20039;-59
2022/12/20 13:47:17;;;;;;;6.95;2.65;;;;;;;;;;5147140;27;20077;-58
2022/12/20 13:49:44;;;;;;;5.03;2.22;;;;;;;;;;5146955;27;20101;-58
2022/12/20 13:52:10;;;;;;;4.13;2.38;;;;;;;;;;5144971;27;20126;-58
2022/12/20 13:54:40;;;;;;;5.53;3.15;;;;;;;;;;5146856;27;20041;-58
2022/12/20 13:57:07;;;;;;;8.63;3.00;;;;;;;;;;5146712;27;20038;-58
2022/12/20 13:59:33;;;;;;;4.43;2.70;;;;;;;;;;5148128;27;20386;-59
2022/12/20 14:02:01;;;;;;;5.88;3.53;;;;;;;;;;5146802;27;20060;-58
2022/12/20 14:04:37;;;;;;;6.18;3.00;;;;;;;;;;5145900;27;20601;-58
2022/12/20 14:07:04;;;;;;;6.05;2.75;;;;;;;;;;5145387;27;20047;-58
2022/12/20 14:09:37;;;;;;;4.78;3.35;;;;;;;;;;5147364;27;20039;-58
2022/12/20 14:12:04;;;;;;;5.05;2.58;;;;;;;;;;5146685;27;20046;-58
2022/12/20 14:14:30;;;;;;;3.15;2.55;;;;;;;;;;5145989;27;20136;-58
2022/12/20 14:17:13;;;;;;;9.70;2.67;;;;;;;;;;5146144;27;20043;-58
2022/12/20 14:19:39;;;;;;;4.65;2.50;;;;;;;;;;5146160;27;20078;-58
2022/12/20 14:22:06;;;;;;;6.97;3.30;;;;;;;;;;5162237;27;20047;-58
2022/12/20 14:24:32;;;;;;;7.57;3.13;;;;;;;;;;5146103;27;20086;-58
2022/12/20 14:26:59;;;;;;;6.75;2.85;;;;;;;;;;5148019;27;20037;-58
2022/12/20 14:29:29;;;;;;;4.47;2.58;;;;;;;;;;5146764;27;20051;-59
2022/12/20 14:31:56;;;;;;;5.05;2.60;;;;;;;;;;5143817;27;20054;-58
2022/12/20 14:34:29;;;;;;;5.57;3.28;;;;;;;;;;5141218;27;20047;-58
2022/12/20 14:37:14;;;;;;;6.30;2.97;;;;;;;;;;5147602;27;20038;-58
2022/12/20 14:39:53;;;;;;;6.78;2.53;;;;;;;;;;5146431;27;20044;-58
2022/12/20 14:42:20;;;;;;;5.95;3.10;;;;;;;;;;5143738;27;20049;-59
2022/12/20 14:44:46;;;;;;;7.88;3.22;;;;;;;;;;5143996;27;20104;-58
2022/12/20 14:47:18;;;;;;;6.80;3.00;;;;;;;;;;5141778;27;20043;-58
2022/12/20 14:50:10;;;;;;;11.23;4.38;;;;;;;;;;5146302;27;20126;-58
2022/12/20 14:52:36;;;;;;;;;;;;;;;;;;5146190;27;20078;-59
2022/12/20 14:55:03;;;;;;;9.68;4.30;;;;;;;;;;5145817;27;20017;-58
2022/12/20 14:57:31;;;;;;;5.75;3.53;;;;;;;;;;5146067;27;20587;-59
2022/12/20 14:59:59;;;;;;;8.82;3.95;;;;;;;;;;5146640;27;20039;-59
2022/12/20 15:02:44;;;;;;;6.93;4.28;;;;;;;;;;5143923;27;20053;-58
2022/12/20 15:05:29;;;;;;;8.55;3.63;;;;;;;;;;5145937;27;20650;-59